Terminal Aerodrome Forecast
Issued by NWS Cleveland, OH

Home | Current Version | Previous Version | Graphics & Text | Print | Product List | Glossary On
Versions: 1 2 3 4 5 6 7 8 9 10 11 12 13 14 15
752
FTUS41 KCLE 262320
TAFYNG
TAF
KYNG 262320Z 2700/2724 17011KT P6SM SCT250
     FM271500 18014G22KT P6SM BKN040 OVC120
     FM272000 20015G25KT 5SM -SHRA VCTS OVC025CB=

USA.gov is the U.S. government's official web portal to all federal, state and local government web resources and services.